createdAt,value
2023-12-23T00:02:18.672Z,1.57
2023-12-23T00:04:47.649Z,1.40
2023-12-23T00:07:15.889Z,1.70
2023-12-23T00:09:43.711Z,2.60
2023-12-23T00:12:11.442Z,1.40
2023-12-23T00:14:39.419Z,1.27
2023-12-23T00:17:07.124Z,1.97
2023-12-23T00:19:34.980Z,1.67
2023-12-23T00:22:04.378Z,1.30
2023-12-23T00:24:32.959Z,1.67
2023-12-23T00:27:00.626Z,1.90
2023-12-23T00:29:30.217Z,1.80
2023-12-23T00:31:58.033Z,1.40
2023-12-23T00:34:25.634Z,1.40
2023-12-23T00:36:53.564Z,1.50
2023-12-23T00:39:22.620Z,1.83
2023-12-23T00:41:50.387Z,1.50
2023-12-23T00:44:18.323Z,1.27
2023-12-23T00:46:46.434Z,1.47
2023-12-23T00:49:14.319Z,1.40
2023-12-23T00:51:41.959Z,1.80
2023-12-23T00:54:09.721Z,1.40
2023-12-23T00:56:41.168Z,1.67
2023-12-23T00:59:09.171Z,2.10
2023-12-23T01:01:37.237Z,1.97
2023-12-23T01:04:05.400Z,2.00
2023-12-23T01:06:33.086Z,2.17
2023-12-23T01:09:00.791Z,1.90
2023-12-23T01:11:28.584Z,1.50
2023-12-23T01:13:57.640Z,1.20
2023-12-23T01:16:26.306Z,1.57
2023-12-23T01:18:54.296Z,2.00
2023-12-23T01:21:22.643Z,1.53
2023-12-23T01:23:50.601Z,1.57
2023-12-23T01:26:18.426Z,1.30
2023-12-23T01:28:46.161Z,1.90
2023-12-23T01:31:15.202Z,1.60
2023-12-23T01:33:43.822Z,2.57
2023-12-23T01:36:11.826Z,1.70
2023-12-23T01:38:39.490Z,2.07
2023-12-23T01:41:07.341Z,1.37
2023-12-23T01:43:35.076Z,1.40
2023-12-23T01:46:04.034Z,1.60
2023-12-23T01:48:38.388Z,1.50
2023-12-23T01:51:06.434Z,1.20
2023-12-23T01:53:35.535Z,1.40
2023-12-23T01:56:03.768Z,1.70
2023-12-23T01:58:31.105Z,1.30
2023-12-23T02:00:58.763Z,2.00
2023-12-23T02:03:27.647Z,1.30
2023-12-23T02:05:59.758Z,1.60
2023-12-23T02:08:27.724Z,1.63
2023-12-23T02:11:05.081Z,1.50
2023-12-23T02:13:39.225Z,2.10
2023-12-23T02:16:07.766Z,1.87
2023-12-23T02:18:35.445Z,2.80
2023-12-23T02:21:04.933Z,2.20
2023-12-23T02:23:32.761Z,1.60
2023-12-23T02:26:02.262Z,2.00
2023-12-23T02:28:30.211Z,2.40
2023-12-23T02:30:59.209Z,1.80
2023-12-23T02:33:27.303Z,1.60
2023-12-23T02:35:54.977Z,1.80
2023-12-23T02:38:25.276Z,2.10
2023-12-23T02:40:53.134Z,2.00
2023-12-23T02:43:20.781Z,2.07
2023-12-23T02:45:50.281Z,1.70
2023-12-23T02:48:17.968Z,2.33
2023-12-23T02:50:45.693Z,2.20
2023-12-23T02:53:13.861Z,2.17
2023-12-23T02:55:43.611Z,2.40
2023-12-23T02:58:11.438Z,2.10
2023-12-23T03:00:39.215Z,2.20
2023-12-23T03:03:06.853Z,2.20
2023-12-23T03:05:34.593Z,2.23
2023-12-23T03:08:02.480Z,1.90
2023-12-23T03:10:30.157Z,1.60
2023-12-23T03:12:59.035Z,1.80
2023-12-23T03:15:26.769Z,2.13
2023-12-23T03:17:54.677Z,1.97
2023-12-23T03:20:24.161Z,2.33
2023-12-23T03:22:52.345Z,1.90
2023-12-23T03:25:20.362Z,2.67
2023-12-23T03:27:48.077Z,1.80
2023-12-23T03:30:17.429Z,2.13
2023-12-23T03:32:45.157Z,2.10
2023-12-23T03:35:13.391Z,4.20
2023-12-23T03:37:41.890Z,1.80
2023-12-23T03:40:10.445Z,1.73
2023-12-23T03:42:39.799Z,2.30
2023-12-23T03:45:08.641Z,2.23
2023-12-23T03:47:39.283Z,1.83
2023-12-23T03:50:08.066Z,1.80
2023-12-23T03:52:35.677Z,1.87
2023-12-23T03:55:03.323Z,1.43
2023-12-23T03:57:30.958Z,2.00
2023-12-23T03:59:58.696Z,2.40
2023-12-23T04:02:26.327Z,2.47
2023-12-23T04:04:55.635Z,2.10
2023-12-23T04:07:23.323Z,1.77
2023-12-23T04:09:51.458Z,1.97
2023-12-23T04:12:19.022Z,3.57
2023-12-23T04:14:46.701Z,1.87
2023-12-23T04:17:14.784Z,2.50
2023-12-23T04:19:42.555Z,2.67
2023-12-23T04:22:11.618Z,1.60
2023-12-23T04:24:39.217Z,1.60
2023-12-23T04:27:07.040Z,3.50
2023-12-23T04:29:34.821Z,1.80
2023-12-23T04:32:05.384Z,2.17
2023-12-23T04:34:34.476Z,1.77
2023-12-23T04:37:02.303Z,2.57
2023-12-23T04:39:31.426Z,2.30
2023-12-23T04:42:00.797Z,1.70
2023-12-23T04:44:29.596Z,2.27
2023-12-23T04:46:58.179Z,1.97
2023-12-23T04:49:26.666Z,1.33
2023-12-23T04:51:54.369Z,1.83
2023-12-23T04:54:22.333Z,1.70
2023-12-23T04:56:51.524Z,2.10
2023-12-23T04:59:19.329Z,1.93
2023-12-23T05:01:47.599Z,2.53
2023-12-23T05:04:15.428Z,1.57
2023-12-23T05:06:43.158Z,1.57
2023-12-23T05:09:11.081Z,1.83
2023-12-23T05:11:38.653Z,1.60
2023-12-23T05:14:07.721Z,1.57
2023-12-23T05:16:35.442Z,1.93
2023-12-23T05:19:03.171Z,1.60
2023-12-23T05:21:31.256Z,1.60
2023-12-23T05:23:59.046Z,2.30
2023-12-23T05:26:27.041Z,1.60
2023-12-23T05:28:54.819Z,1.53
2023-12-23T05:31:24.119Z,1.97
2023-12-23T05:33:56.373Z,1.90
2023-12-23T05:36:24.290Z,1.83
2023-12-23T05:38:51.888Z,2.20
2023-12-23T05:41:19.733Z,1.73
2023-12-23T05:43:47.469Z,1.70
2023-12-23T05:46:15.259Z,1.73
2023-12-23T05:48:44.475Z,1.80
2023-12-23T05:51:13.231Z,1.50
2023-12-23T05:53:40.853Z,1.50
2023-12-23T05:56:09.636Z,2.00
2023-12-23T05:58:37.386Z,2.10
2023-12-23T06:01:06.378Z,2.10
2023-12-23T06:03:34.271Z,2.87
2023-12-23T06:06:05.310Z,1.77
2023-12-23T06:08:33.126Z,1.20
2023-12-23T06:11:02.406Z,1.80
2023-12-23T06:13:31.246Z,2.33
2023-12-23T06:15:58.781Z,1.40
2023-12-23T06:18:26.526Z,1.50
2023-12-23T06:20:54.169Z,1.53
2023-12-23T06:23:23.042Z,0.90
2023-12-23T06:25:50.612Z,1.30
2023-12-23T06:28:18.255Z,1.67
2023-12-23T06:30:45.855Z,1.30
2023-12-23T06:33:13.529Z,1.10
2023-12-23T06:35:41.200Z,1.53
2023-12-23T06:38:08.958Z,1.20
2023-12-23T06:40:37.978Z,1.30
2023-12-23T06:43:43.298Z,1.90
2023-12-23T06:45:53.517Z,1.50
2023-12-23T06:48:21.238Z,1.40
2023-12-23T06:50:49.095Z,1.47
2023-12-23T06:53:16.908Z,1.83
2023-12-23T06:55:45.911Z,1.80
2023-12-23T06:58:13.676Z,1.10
2023-12-23T07:00:41.454Z,1.50
2023-12-23T07:03:09.149Z,1.10
2023-12-23T07:05:36.857Z,1.70
2023-12-23T07:08:07.193Z,1.30
2023-12-23T07:10:34.832Z,1.40
2023-12-23T07:13:03.834Z,1.20
2023-12-23T07:15:31.467Z,2.97
2023-12-23T07:17:59.190Z,1.10
2023-12-23T07:20:26.848Z,1.20
2023-12-23T07:22:54.795Z,1.00
2023-12-23T07:25:22.553Z,1.63
2023-12-23T07:27:50.095Z,1.00
2023-12-23T07:30:19.343Z,1.10
2023-12-23T07:32:47.022Z,1.20
2023-12-23T07:35:14.811Z,1.03
2023-12-23T07:37:42.616Z,1.47
2023-12-23T07:40:11.338Z,0.90
2023-12-23T07:42:38.973Z,1.17
2023-12-23T07:45:07.739Z,1.27
2023-12-23T07:47:36.683Z,1.20
2023-12-23T07:50:05.039Z,1.43
2023-12-23T07:52:32.686Z,1.20
2023-12-23T07:55:00.750Z,1.00
2023-12-23T07:57:28.402Z,1.00
2023-12-23T07:59:56.011Z,0.93
2023-12-23T08:02:24.090Z,1.10
2023-12-23T08:04:53.184Z,2.80
2023-12-23T08:07:20.794Z,1.43
2023-12-23T08:09:48.668Z,1.23
2023-12-23T08:12:16.259Z,1.20
2023-12-23T08:14:44.423Z,1.00
2023-12-23T08:17:12.939Z,1.10
2023-12-23T08:19:41.005Z,1.10
2023-12-23T08:22:09.987Z,0.90
2023-12-23T08:24:37.847Z,0.97
2023-12-23T08:27:06.069Z,0.90
2023-12-23T08:29:34.209Z,0.97
2023-12-23T08:32:02.013Z,1.00
2023-12-23T08:34:29.670Z,1.00
2023-12-23T08:36:57.229Z,1.00
2023-12-23T08:39:26.209Z,1.30
2023-12-23T08:41:53.803Z,1.30
2023-12-23T08:44:22.437Z,1.10
2023-12-23T08:46:50.439Z,1.50
2023-12-23T08:49:18.174Z,3.13
2023-12-23T08:51:45.801Z,1.27
2023-12-23T08:54:13.781Z,1.20
2023-12-23T08:56:42.762Z,1.87
2023-12-23T08:59:10.365Z,1.40
2023-12-23T09:01:38.021Z,1.10
2023-12-23T09:04:05.640Z,1.33
2023-12-23T09:06:33.268Z,1.83
2023-12-23T09:09:01.131Z,1.20
2023-12-23T09:11:29.104Z,1.83
2023-12-23T09:13:58.169Z,1.50
2023-12-23T09:16:25.853Z,1.47
2023-12-23T09:18:53.561Z,1.10
2023-12-23T09:21:21.397Z,1.93
2023-12-23T09:23:50.107Z,1.80
2023-12-23T09:26:17.915Z,0.97
2023-12-23T09:28:45.801Z,1.30
2023-12-23T09:31:14.722Z,1.20
2023-12-23T09:33:42.578Z,1.20
2023-12-23T09:36:10.597Z,1.10
2023-12-23T09:38:38.292Z,1.20
2023-12-23T09:41:06.165Z,1.63
2023-12-23T09:43:35.069Z,1.50
2023-12-23T09:46:05.138Z,1.50
2023-12-23T09:48:34.377Z,2.13
2023-12-23T09:51:02.382Z,1.80
2023-12-23T09:53:36.844Z,2.33
2023-12-23T09:56:05.471Z,1.10
2023-12-23T09:58:33.331Z,1.33
2023-12-23T10:01:01.374Z,1.27
2023-12-23T10:03:29.924Z,1.50
2023-12-23T10:06:01.951Z,1.70
2023-12-23T10:08:30.275Z,2.07
2023-12-23T10:10:58.267Z,2.10
2023-12-23T10:13:26.163Z,1.27
2023-12-23T10:15:53.986Z,2.80
2023-12-23T10:18:21.621Z,2.63
2023-12-23T10:20:49.600Z,2.10
2023-12-23T10:23:18.700Z,3.13
2023-12-23T10:25:46.624Z,2.13
2023-12-23T10:28:16.981Z,1.40
2023-12-23T10:30:49.449Z,1.53
2023-12-23T10:33:19.153Z,1.37
2023-12-23T10:35:48.008Z,1.50
2023-12-23T10:38:18.727Z,1.50
2023-12-23T10:40:53.668Z,1.93
2023-12-23T10:43:22.997Z,1.30
2023-12-23T10:45:50.726Z,1.10
2023-12-23T10:48:19.471Z,1.90
2023-12-23T10:50:49.230Z,1.23
2023-12-23T10:53:19.405Z,1.40
2023-12-23T10:55:49.262Z,1.37
2023-12-23T10:58:20.487Z,1.80
2023-12-23T11:00:48.644Z,1.13
2023-12-23T11:03:16.923Z,1.90
2023-12-23T11:05:45.809Z,1.30
2023-12-23T11:08:17.773Z,1.87
2023-12-23T11:10:49.217Z,1.33
2023-12-23T11:13:17.485Z,1.37
2023-12-23T11:15:45.133Z,1.40
2023-12-23T11:18:12.995Z,2.90
2023-12-23T11:20:50.846Z,3.50
2023-12-23T11:23:37.317Z,1.37
2023-12-23T11:26:06.682Z,1.87
2023-12-23T11:28:37.544Z,1.67
2023-12-23T11:31:05.891Z,1.43
2023-12-23T11:33:36.667Z,1.40
2023-12-23T11:36:05.175Z,1.73
2023-12-23T11:38:48.834Z,1.70
2023-12-23T11:41:18.354Z,1.73
2023-12-23T11:43:47.227Z,1.80
2023-12-23T11:46:15.720Z,1.37
2023-12-23T11:48:43.319Z,1.83
2023-12-23T11:51:12.275Z,1.30
2023-12-23T11:53:40.264Z,1.70
2023-12-23T11:56:08.994Z,1.50
2023-12-23T11:58:37.990Z,1.90
2023-12-23T12:01:06.106Z,2.03
2023-12-23T12:03:34.134Z,1.70
2023-12-23T12:06:03.591Z,1.37
2023-12-23T12:08:31.786Z,1.30
2023-12-23T12:11:03.209Z,1.50
2023-12-23T12:13:31.774Z,1.97
2023-12-23T12:16:00.998Z,1.80
2023-12-23T12:18:28.817Z,1.53
2023-12-23T12:20:57.281Z,1.83
2023-12-23T12:23:24.864Z,1.97
2023-12-23T12:25:53.039Z,1.60
2023-12-23T12:28:20.682Z,1.80
2023-12-23T12:30:48.760Z,1.83
2023-12-23T12:33:18.114Z,1.70
2023-12-23T12:35:45.729Z,1.93
2023-12-23T12:38:20.061Z,1.77
2023-12-23T12:40:52.447Z,1.37
2023-12-23T12:43:22.870Z,1.60
2023-12-23T12:45:50.457Z,1.57
2023-12-23T12:48:19.466Z,1.97
2023-12-23T12:50:48.492Z,2.60
2023-12-23T12:53:17.182Z,1.77
2023-12-23T12:55:44.973Z,1.80
2023-12-23T12:58:12.677Z,1.97
2023-12-23T13:00:40.371Z,2.00
2023-12-23T13:03:07.985Z,2.00
2023-12-23T13:05:37.147Z,1.70
2023-12-23T13:08:05.453Z,1.77
2023-12-23T13:10:33.041Z,2.00
2023-12-23T13:13:01.574Z,2.03
2023-12-23T13:15:29.172Z,1.47
2023-12-23T13:17:57.376Z,2.60
2023-12-23T13:20:25.140Z,1.73
2023-12-23T13:22:54.348Z,1.93
2023-12-23T13:25:22.259Z,3.17
2023-12-23T13:27:49.886Z,1.60
2023-12-23T13:30:17.519Z,2.03
2023-12-23T13:32:45.233Z,1.80
2023-12-23T13:35:13.130Z,1.60
2023-12-23T13:37:41.494Z,1.80
2023-12-23T13:40:11.727Z,3.30
2023-12-23T13:42:40.034Z,2.87
2023-12-23T13:45:08.549Z,2.90
2023-12-23T13:47:36.216Z,1.87
2023-12-23T13:50:04.571Z,2.13
2023-12-23T13:52:32.576Z,1.90
2023-12-23T13:55:04.640Z,2.40
2023-12-23T13:57:33.583Z,1.87
2023-12-23T14:00:01.185Z,2.47
2023-12-23T14:02:29.175Z,1.73
2023-12-23T14:04:56.908Z,2.00
2023-12-23T14:07:24.490Z,3.03
2023-12-23T14:09:52.211Z,2.37
2023-12-23T14:12:19.822Z,2.07
2023-12-23T14:14:48.953Z,1.90
2023-12-23T14:17:16.684Z,1.77
2023-12-23T14:19:45.196Z,2.03
2023-12-23T14:22:14.216Z,5.23
2023-12-23T14:24:43.727Z,2.60
2023-12-23T14:27:11.349Z,4.13
2023-12-23T14:29:40.296Z,3.97
2023-12-23T14:32:09.558Z,2.97
2023-12-23T14:34:37.570Z,2.67
2023-12-23T14:37:05.534Z,2.57
2023-12-23T14:39:33.178Z,2.20
2023-12-23T14:42:00.784Z,1.83
2023-12-23T14:44:28.834Z,2.17
2023-12-23T14:46:56.577Z,2.07
2023-12-23T14:49:25.659Z,2.70
2023-12-23T14:51:53.459Z,2.40
2023-12-23T14:54:21.736Z,2.10
2023-12-23T14:56:49.507Z,2.73
2023-12-23T14:59:17.224Z,2.03
2023-12-23T15:01:44.831Z,2.53
2023-12-23T15:04:12.467Z,3.60
2023-12-23T15:06:41.454Z,3.43
2023-12-23T15:09:09.095Z,2.40
2023-12-23T15:11:36.691Z,2.60
2023-12-23T15:14:04.340Z,1.83
2023-12-23T15:16:32.000Z,1.97
2023-12-23T15:19:00.695Z,1.40
2023-12-23T15:21:28.329Z,1.47
2023-12-23T15:23:58.023Z,1.80
2023-12-23T15:26:28.267Z,1.80
2023-12-23T15:28:56.156Z,1.90
2023-12-23T15:31:23.781Z,1.97
2023-12-23T15:33:51.630Z,2.20
2023-12-23T15:36:19.296Z,1.87
2023-12-23T15:38:46.909Z,2.43
2023-12-23T15:41:16.075Z,2.20
2023-12-23T15:43:43.664Z,2.33
2023-12-23T15:46:11.281Z,2.33
2023-12-23T15:48:39.037Z,2.40
2023-12-23T15:51:06.884Z,2.63
2023-12-23T15:53:34.782Z,2.40
2023-12-23T15:56:03.206Z,3.23
2023-12-23T15:58:32.145Z,3.17
2023-12-23T16:01:00.768Z,3.10
2023-12-23T16:03:28.541Z,3.80
2023-12-23T16:05:56.552Z,2.97
2023-12-23T16:08:24.265Z,4.27
2023-12-23T16:10:53.049Z,5.60
2023-12-23T16:13:20.822Z,2.80
2023-12-23T16:15:49.837Z,3.30
2023-12-23T16:18:17.614Z,2.23
2023-12-23T16:20:45.496Z,1.70
2023-12-23T16:23:13.654Z,2.03
2023-12-23T16:25:41.761Z,2.80
2023-12-23T16:28:09.919Z,2.43
2023-12-23T16:30:37.845Z,2.63
2023-12-23T16:33:07.282Z,2.40
2023-12-23T16:35:35.084Z,2.30
2023-12-23T16:38:03.005Z,2.97
2023-12-23T16:40:30.624Z,4.13
2023-12-23T16:42:58.422Z,5.03
2023-12-23T16:45:26.073Z,4.47
2023-12-23T16:47:54.846Z,2.30
2023-12-23T16:50:24.061Z,2.57
2023-12-23T16:52:51.868Z,3.33
2023-12-23T16:55:20.318Z,3.80
2023-12-23T16:57:48.252Z,2.93
2023-12-23T17:00:17.088Z,3.80
2023-12-23T17:02:45.168Z,2.63
2023-12-23T17:05:13.060Z,6.17
2023-12-23T17:07:41.996Z,5.90
2023-12-23T17:10:10.055Z,7.07
2023-12-23T17:12:37.683Z,7.93
2023-12-23T17:15:07.334Z,5.27
2023-12-23T17:17:35.098Z,6.23
2023-12-23T17:20:02.964Z,6.20
2023-12-23T17:22:30.675Z,3.40
2023-12-23T17:24:59.691Z,5.27
2023-12-23T17:27:27.502Z,5.30
2023-12-23T17:29:55.095Z,6.00
2023-12-23T17:32:27.124Z,4.17
2023-12-23T17:34:55.313Z,5.00
2023-12-23T17:37:23.305Z,4.90
2023-12-23T17:39:51.081Z,3.83
2023-12-23T17:42:19.980Z,3.97
2023-12-23T17:44:48.036Z,4.00
2023-12-23T17:47:15.814Z,3.60
2023-12-23T17:49:43.704Z,4.40
2023-12-23T17:52:11.469Z,4.30
2023-12-23T17:54:39.196Z,3.57
2023-12-23T17:57:07.753Z,3.93
2023-12-23T17:59:37.032Z,4.03
2023-12-23T18:02:05.052Z,6.60
2023-12-23T18:04:32.681Z,6.33
2023-12-23T18:07:00.388Z,4.87
2023-12-23T18:09:28.001Z,4.60
2023-12-23T18:11:56.145Z,5.00
2023-12-23T18:14:24.918Z,3.77
2023-12-23T18:16:54.062Z,3.50
2023-12-23T18:19:21.687Z,3.50
2023-12-23T18:21:49.420Z,3.20
2023-12-23T18:24:17.243Z,4.43
2023-12-23T18:26:44.862Z,4.17
2023-12-23T18:29:12.554Z,3.60
2023-12-23T18:31:40.086Z,4.53
2023-12-23T18:34:09.292Z,4.90
2023-12-23T18:36:37.062Z,4.43
2023-12-23T18:39:04.941Z,3.73
2023-12-23T18:41:32.521Z,3.30
2023-12-23T18:44:01.800Z,3.63
2023-12-23T18:46:29.561Z,3.17
2023-12-23T18:48:57.164Z,2.80
2023-12-23T18:51:26.294Z,3.10
2023-12-23T18:53:53.944Z,3.93
2023-12-23T18:56:21.609Z,4.83
2023-12-23T18:58:49.551Z,5.30
2023-12-23T19:01:17.206Z,3.97
2023-12-23T19:03:44.963Z,4.33
2023-12-23T19:06:13.848Z,5.43
2023-12-23T19:08:43.129Z,4.80
2023-12-23T19:11:11.222Z,4.60
2023-12-23T19:13:39.121Z,4.50
2023-12-23T19:16:10.105Z,3.97
2023-12-23T19:18:38.086Z,3.93
2023-12-23T19:21:06.036Z,3.60
2023-12-23T19:23:33.763Z,9.50
2023-12-23T19:26:02.852Z,5.83
2023-12-23T19:28:31.423Z,5.30
2023-12-23T19:30:59.231Z,4.40
2023-12-23T19:33:27.479Z,4.10
2023-12-23T19:35:55.219Z,5.57
2023-12-23T19:38:23.763Z,4.80
2023-12-23T19:40:51.564Z,4.60
2023-12-23T19:43:20.637Z,4.50
2023-12-23T19:45:48.360Z,7.37
2023-12-23T19:48:16.215Z,5.00
2023-12-23T19:50:44.014Z,5.00
2023-12-23T19:53:11.720Z,4.63
2023-12-23T19:55:40.382Z,4.20
2023-12-23T19:58:07.931Z,3.90
2023-12-23T20:00:46.080Z,3.97
2023-12-23T20:03:13.690Z,4.90
2023-12-23T20:05:41.502Z,5.63
2023-12-23T20:08:09.222Z,3.57
2023-12-23T20:10:37.401Z,4.20
2023-12-23T20:13:05.213Z,5.80
2023-12-23T20:15:32.786Z,6.37
2023-12-23T20:18:02.231Z,9.17
2023-12-23T20:20:30.027Z,5.00
2023-12-23T20:22:57.651Z,3.57
2023-12-23T20:25:25.277Z,1.80
2023-12-23T20:27:52.958Z,2.10
2023-12-23T20:30:20.985Z,2.00
2023-12-23T20:32:48.979Z,1.90
2023-12-23T20:35:18.013Z,1.87
2023-12-23T20:37:45.661Z,2.23
2023-12-23T20:40:13.669Z,2.10
2023-12-23T20:42:44.556Z,2.40
2023-12-23T20:45:12.795Z,2.40
2023-12-23T20:47:40.666Z,2.10
2023-12-23T20:50:08.700Z,1.70
2023-12-23T20:52:38.107Z,2.03
2023-12-23T20:55:06.082Z,1.60
2023-12-23T20:57:33.744Z,2.00
2023-12-23T21:00:01.991Z,1.73
2023-12-23T21:02:29.629Z,2.87
2023-12-23T21:04:57.340Z,2.40
2023-12-23T21:07:25.479Z,2.77
2023-12-23T21:09:56.320Z,1.87
2023-12-23T21:12:24.104Z,2.10
2023-12-23T21:14:51.993Z,1.67
2023-12-23T21:17:19.619Z,2.07
2023-12-23T21:19:47.685Z,2.00
2023-12-23T21:22:15.579Z,1.90
2023-12-23T21:24:43.103Z,1.90
2023-12-23T21:27:12.039Z,2.20
2023-12-23T21:29:40.457Z,1.80
2023-12-23T21:32:08.380Z,1.63
2023-12-23T21:34:36.013Z,1.80
2023-12-23T21:37:03.770Z,1.80
2023-12-23T21:39:31.299Z,1.40
2023-12-23T21:41:59.060Z,1.57
2023-12-23T21:44:28.036Z,1.63
2023-12-23T21:46:56.577Z,1.27
2023-12-23T21:49:24.435Z,1.40
2023-12-23T21:51:53.099Z,1.47
2023-12-23T21:54:20.800Z,1.77
2023-12-23T21:56:48.461Z,1.60
2023-12-23T21:59:16.340Z,1.80
2023-12-23T22:01:45.357Z,1.60
2023-12-23T22:04:12.973Z,1.97
2023-12-23T22:06:40.994Z,1.60
2023-12-23T22:09:09.884Z,1.53
2023-12-23T22:11:37.648Z,2.13
2023-12-23T22:14:05.280Z,1.80
2023-12-23T22:16:33.008Z,1.50
2023-12-23T22:19:02.012Z,1.80
2023-12-23T22:21:29.700Z,1.70
2023-12-23T22:23:58.135Z,1.90
2023-12-23T22:26:26.223Z,2.27
2023-12-23T22:28:53.905Z,1.50
2023-12-23T22:31:21.537Z,2.40
2023-12-23T22:33:49.240Z,1.63
2023-12-23T22:36:18.524Z,2.13
2023-12-23T22:38:50.152Z,2.40
2023-12-23T22:41:18.085Z,2.60
2023-12-23T22:43:46.013Z,1.70
2023-12-23T22:46:13.662Z,2.30
2023-12-23T22:48:41.389Z,2.50
2023-12-23T22:51:09.248Z,2.23
2023-12-23T22:53:38.210Z,2.83
2023-12-23T22:56:06.837Z,3.27
2023-12-23T22:58:35.203Z,3.47
2023-12-23T23:01:02.940Z,3.30
2023-12-23T23:03:31.759Z,3.03
2023-12-23T23:05:59.662Z,2.90
2023-12-23T23:08:27.536Z,2.70
2023-12-23T23:10:56.524Z,2.47
2023-12-23T23:13:24.196Z,3.40
2023-12-23T23:15:51.890Z,3.80
2023-12-23T23:18:21.030Z,3.10
2023-12-23T23:20:49.366Z,3.20
2023-12-23T23:23:17.138Z,2.83
2023-12-23T23:25:44.680Z,2.83
2023-12-23T23:28:13.792Z,2.83
2023-12-23T23:30:41.662Z,2.83
2023-12-23T23:33:09.881Z,2.80
2023-12-23T23:35:37.913Z,2.90
2023-12-23T23:38:06.135Z,3.00
2023-12-23T23:40:33.708Z,2.43
2023-12-23T23:43:01.783Z,3.20
2023-12-23T23:45:30.787Z,3.70
2023-12-23T23:47:58.750Z,4.03
2023-12-23T23:50:26.482Z,2.73
2023-12-23T23:52:54.304Z,3.13
2023-12-23T23:55:21.973Z,2.50
2023-12-23T23:57:49.691Z,2.17
